sensor_id;sensor_type;location;lat;lon;timestamp;noise_LAeq;noise_LA_min;noise_LA_max;noise_LA01;noise_LA95
69620;Laerm;57654;51.434;5.984;2022-07-01T00:00:03;31.47;29.40;36.05;;
69620;Laerm;57654;51.434;5.984;2022-07-01T00:00:14;31.32;28.87;39.12;;
69620;Laerm;57654;51.434;5.984;2022-07-01T00:00:24;31.36;28.99;38.20;;
69620;Laerm;57654;51.434;5.984;2022-07-01T00:00:34;31.67;29.15;44.45;;
69620;Laerm;57654;51.434;5.984;2022-07-01T00:00:45;31.45;29.30;36.87;;
69620;Laerm;57654;51.434;5.984;2022-07-01T00:00:55;32.01;29.76;36.72;;
69620;Laerm;57654;51.434;5.984;2022-07-01T00:01:05;31.30;29.08;37.21;;
69620;Laerm;57654;51.434;5.984;2022-07-01T00:01:16;31.60;28.81;38.38;;
69620;Laerm;57654;51.434;5.984;2022-07-01T00:01:26;31.13;28.97;35.78;;
69620;Laerm;57654;51.434;5.984;2022-07-01T00:01:37;30.93;28.83;33.75;;
69620;Laerm;57654;51.434;5.984;2022-07-01T00:01:47;31.25;28.79;35.51;;
69620;Laerm;57654;51.434;5.984;2022-07-01T00:01:57;31.21;28.73;37.84;;
69620;Laerm;57654;51.434;5.984;2022-07-01T00:02:08;31.14;28.85;35.98;;
69620;Laerm;57654;51.434;5.984;2022-07-01T00:02:18;31.11;28.91;37.01;;
69620;Laerm;57654;51.434;5.984;2022-07-01T00:02:28;31.14;28.97;36.92;;
69620;Laerm;57654;51.434;5.984;2022-07-01T00:02:39;31.32;29.30;37.40;;
69620;Laerm;57654;51.434;5.984;2022-07-01T00:02:49;31.29;29.31;35.51;;
69620;Laerm;57654;51.434;5.984;2022-07-01T00:02:59;30.97;29.02;35.35;;
69620;Laerm;57654;51.434;5.984;2022-07-01T00:03:10;31.27;29.23;36.23;;
69620;Laerm;57654;51.434;5.984;2022-07-01T00:03:20;31.24;29.26;37.21;;
69620;Laerm;57654;51.434;5.984;2022-07-01T00:03:30;31.06;28.64;34.71;;
69620;Laerm;57654;51.434;5.984;2022-07-01T00:03:41;31.07;28.99;34.55;;
69620;Laerm;57654;51.434;5.984;2022-07-01T00:03:58;31.21;29.21;35.78;;
69620;Laerm;57654;51.434;5.984;2022-07-01T00:04:09;31.22;29.26;35.86;;
69620;Laerm;57654;51.434;5.984;2022-07-01T00:04:19;31.18;28.99;35.93;;
69620;Laerm;57654;51.434;5.984;2022-07-01T00:04:29;31.35;28.98;37.87;;
69620;Laerm;57654;51.434;5.984;2022-07-01T00:04:40;31.23;29.02;36.70;;
69620;Laerm;57654;51.434;5.984;2022-07-01T00:04:50;31.29;29.09;35.62;;
69620;Laerm;57654;51.434;5.984;2022-07-01T00:05:00;31.78;29.45;36.59;;
69620;Laerm;57654;51.434;5.984;2022-07-01T00:05:11;31.27;29.01;35.33;;
69620;Laerm;57654;51.434;5.984;2022-07-01T00:05:21;31.47;29.02;37.17;;
69620;Laerm;57654;51.434;5.984;2022-07-01T00:05:31;31.35;29.15;38.91;;
69620;Laerm;57654;51.434;5.984;2022-07-01T00:05:42;31.30;28.84;36.79;;
69620;Laerm;57654;51.434;5.984;2022-07-01T00:05:52;31.49;29.31;35.71;;
69620;Laerm;57654;51.434;5.984;2022-07-01T00:06:02;31.37;29.36;35.42;;
69620;Laerm;57654;51.434;5.984;2022-07-01T00:06:12;31.36;29.32;35.24;;
69620;Laerm;57654;51.434;5.984;2022-07-01T00:06:22;31.21;29.30;36.71;;
69620;Laerm;57654;51.434;5.984;2022-07-01T00:06:33;33.35;29.85;37.95;;
69620;Laerm;57654;51.434;5.984;2022-07-01T00:06:44;31.56;29.32;38.54;;
69620;Laerm;57654;51.434;5.984;2022-07-01T00:06:54;31.39;28.78;35.85;;
69620;Laerm;57654;51.434;5.984;2022-07-01T00:07:04;31.45;29.31;35.05;;
69620;Laerm;57654;51.434;5.984;2022-07-01T00:07:14;31.45;29.34;38.86;;
69620;Laerm;57654;51.434;5.984;2022-07-01T00:07:26;31.38;29.32;36.88;;
69620;Laerm;57654;51.434;5.984;2022-07-01T00:07:36;31.18;29.24;35.19;;
69620;Laerm;57654;51.434;5.984;2022-07-01T00:07:46;31.31;28.98;37.06;;
69620;Laerm;57654;51.434;5.984;2022-07-01T00:07:57;31.47;29.25;36.84;;
69620;Laerm;57654;51.434;5.984;2022-07-01T00:08:07;31.38;29.03;35.70;;
69620;Laerm;57654;51.434;5.984;2022-07-01T00:08:17;31.91;29.51;38.39;;
69620;Laerm;57654;51.434;5.984;2022-07-01T00:08:27;31.23;29.23;34.37;;
69620;Laerm;57654;51.434;5.984;2022-07-01T00:08:37;31.30;29.18;35.07;;
69620;Laerm;57654;51.434;5.984;2022-07-01T00:08:48;31.72;29.27;37.54;;
69620;Laerm;57654;51.434;5.984;2022-07-01T00:08:58;31.72;29.63;37.02;;
69620;Laerm;57654;51.434;5.984;2022-07-01T00:09:08;31.88;29.42;36.33;;
69620;Laerm;57654;51.434;5.984;2022-07-01T00:09:19;31.48;29.38;35.61;;
69620;Laerm;57654;51.434;5.984;2022-07-01T00:09:29;31.97;29.83;38.13;;
69620;Laerm;57654;51.434;5.984;2022-07-01T00:09:39;32.10;29.74;37.50;;
69620;Laerm;57654;51.434;5.984;2022-07-01T00:09:49;32.93;30.45;36.27;;
69620;Laerm;57654;51.434;5.984;2022-07-01T00:10:00;39.95;32.54;46.55;;
69620;Laerm;57654;51.434;5.984;2022-07-01T00:10:10;48.62;43.82;50.73;;
69620;Laerm;57654;51.434;5.984;2022-07-01T00:10:21;47.30;45.43;49.83;;
69620;Laerm;57654;51.434;5.984;2022-07-01T00:10:31;42.10;32.15;46.80;;
69620;Laerm;57654;51.434;5.984;2022-07-01T00:10:41;32.05;29.46;41.54;;
69620;Laerm;57654;51.434;5.984;2022-07-01T00:10:52;31.50;29.22;43.69;;
69620;Laerm;57654;51.434;5.984;2022-07-01T00:11:02;32.05;29.65;37.74;;
69620;Laerm;57654;51.434;5.984;2022-07-01T00:11:12;31.51;29.04;36.76;;
69620;Laerm;57654;51.434;5.984;2022-07-01T00:11:23;31.28;29.46;36.03;;
69620;Laerm;57654;51.434;5.984;2022-07-01T00:11:33;31.21;28.92;37.92;;
69620;Laerm;57654;51.434;5.984;2022-07-01T00:11:43;31.26;29.38;35.14;;
69620;Laerm;57654;51.434;5.984;2022-07-01T00:11:53;31.26;29.43;34.53;;
69620;Laerm;57654;51.434;5.984;2022-07-01T00:12:04;31.42;29.25;36.83;;
69620;Laerm;57654;51.434;5.984;2022-07-01T00:12:15;31.45;28.80;38.31;;
69620;Laerm;57654;51.434;5.984;2022-07-01T00:12:26;31.45;29.24;36.23;;
69620;Laerm;57654;51.434;5.984;2022-07-01T00:12:36;31.28;29.04;34.89;;
69620;Laerm;57654;51.434;5.984;2022-07-01T00:12:46;31.16;29.21;35.71;;
69620;Laerm;57654;51.434;5.984;2022-07-01T00:12:57;31.26;28.84;34.88;;
69620;Laerm;57654;51.434;5.984;2022-07-01T00:13:07;31.10;29.36;36.82;;
69620;Laerm;57654;51.434;5.984;2022-07-01T00:13:17;32.20;29.38;35.01;;
69620;Laerm;57654;51.434;5.984;2022-07-01T00:13:28;31.24;29.38;34.41;;
69620;Laerm;57654;51.434;5.984;2022-07-01T00:13:38;31.20;29.13;35.61;;
69620;Laerm;57654;51.434;5.984;2022-07-01T00:13:48;31.39;29.53;36.50;;
69620;Laerm;57654;51.434;5.984;2022-07-01T00:13:58;31.17;29.12;35.42;;
69620;Laerm;57654;51.434;5.984;2022-07-01T00:14:09;31.43;28.98;39.50;;
69620;Laerm;57654;51.434;5.984;2022-07-01T00:14:19;31.15;29.28;36.69;;
69620;Laerm;57654;51.434;5.984;2022-07-01T00:14:29;31.23;29.20;37.80;;
69620;Laerm;57654;51.434;5.984;2022-07-01T00:14:40;32.71;29.97;36.94;;
69620;Laerm;57654;51.434;5.984;2022-07-01T00:14:52;31.44;29.48;35.59;;
69620;Laerm;57654;51.434;5.984;2022-07-01T00:15:02;31.34;29.27;34.79;;
69620;Laerm;57654;51.434;5.984;2022-07-01T00:15:13;31.27;29.52;38.42;;
69620;Laerm;57654;51.434;5.984;2022-07-01T00:15:24;31.33;29.12;35.27;;
69620;Laerm;57654;51.434;5.984;2022-07-01T00:15:34;31.10;28.84;34.42;;
69620;Laerm;57654;51.434;5.984;2022-07-01T00:15:44;31.35;29.04;37.38;;
69620;Laerm;57654;51.434;5.984;2022-07-01T00:15:55;33.76;29.45;39.32;;
69620;Laerm;57654;51.434;5.984;2022-07-01T00:16:05;31.35;29.29;36.21;;
69620;Laerm;57654;51.434;5.984;2022-07-01T00:16:15;31.45;28.87;37.38;;
69620;Laerm;57654;51.434;5.984;2022-07-01T00:16:25;31.30;28.91;36.33;;
69620;Laerm;57654;51.434;5.984;2022-07-01T00:16:36;31.12;29.10;34.35;;
69620;Laerm;57654;51.434;5.984;2022-07-01T00:16:46;31.26;29.19;36.04;;
69620;Laerm;57654;51.434;5.984;2022-07-01T00:16:56;31.21;29.03;36.52;;
69620;Laerm;57654;51.434;5.984;2022-07-01T00:17:06;31.29;29.20;35.27;;
69620;Laerm;57654;51.434;5.984;2022-07-01T00:17:16;31.71;29.57;36.27;;
69620;Laerm;57654;51.434;5.984;2022-07-01T00:17:27;31.39;28.71;41.18;;
69620;Laerm;57654;51.434;5.984;2022-07-01T00:17:37;32.39;29.13;41.33;;
69620;Laerm;57654;51.434;5.984;2022-07-01T00:17:48;31.16;28.90;36.20;;
69620;Laerm;57654;51.434;5.984;2022-07-01T00:17:58;31.18;28.70;35.21;;
69620;Laerm;57654;51.434;5.984;2022-07-01T00:18:08;31.07;28.89;36.62;;
69620;Laerm;57654;51.434;5.984;2022-07-01T00:18:19;30.99;29.01;36.56;;
69620;Laerm;57654;51.434;5.984;2022-07-01T00:18:31;31.37;29.11;38.22;;
69620;Laerm;57654;51.434;5.984;2022-07-01T00:18:41;31.11;29.06;37.30;;
69620;Laerm;57654;51.434;5.984;2022-07-01T00:18:51;31.10;28.91;36.69;;
69620;Laerm;57654;51.434;5.984;2022-07-01T00:19:02;31.68;28.76;41.92;;
69620;Laerm;57654;51.434;5.984;2022-07-01T00:19:13;31.62;29.05;37.91;;
69620;Laerm;57654;51.434;5.984;2022-07-01T00:19:23;31.04;29.05;35.95;;
69620;Laerm;57654;51.434;5.984;2022-07-01T00:19:34;31.21;28.95;38.66;;
69620;Laerm;57654;51.434;5.984;2022-07-01T00:19:45;31.12;29.02;38.33;;
69620;Laerm;57654;51.434;5.984;2022-07-01T00:19:55;31.28;29.06;37.57;;
69620;Laerm;57654;51.434;5.984;2022-07-01T00:20:06;31.44;28.72;36.11;;
69620;Laerm;57654;51.434;5.984;2022-07-01T00:20:17;31.04;28.90;34.98;;
69620;Laerm;57654;51.434;5.984;2022-07-01T00:20:28;31.12;29.04;34.92;;
69620;Laerm;57654;51.434;5.984;2022-07-01T00:20:38;31.16;29.03;38.85;;
69620;Laerm;57654;51.434;5.984;2022-07-01T00:20:49;31.06;29.12;34.44;;
69620;Laerm;57654;51.434;5.984;2022-07-01T00:21:00;31.22;28.76;34.92;;
69620;Laerm;57654;51.434;5.984;2022-07-01T00:21:11;31.04;29.09;36.44;;
69620;Laerm;57654;51.434;5.984;2022-07-01T00:21:22;31.16;29.11;35.64;;
69620;Laerm;57654;51.434;5.984;2022-07-01T00:21:33;31.17;29.02;36.53;;
69620;Laerm;57654;51.434;5.984;2022-07-01T00:21:43;31.19;29.13;35.38;;
69620;Laerm;57654;51.434;5.984;2022-07-01T00:21:54;31.30;28.84;37.51;;
69620;Laerm;57654;51.434;5.984;2022-07-01T00:22:04;31.11;29.01;35.46;;
69620;Laerm;57654;51.434;5.984;2022-07-01T00:22:14;31.17;29.18;35.24;;
69620;Laerm;57654;51.434;5.984;2022-07-01T00:22:24;31.21;28.74;35.48;;
69620;Laerm;57654;51.434;5.984;2022-07-01T00:22:37;31.07;28.91;36.22;;
69620;Laerm;57654;51.434;5.984;2022-07-01T00:22:48;31.31;29.14;37.58;;
69620;Laerm;57654;51.434;5.984;2022-07-01T00:22:58;30.98;28.79;34.68;;
69620;Laerm;57654;51.434;5.984;2022-07-01T00:23:08;30.98;28.73;35.80;;
69620;Laerm;57654;51.434;5.984;2022-07-01T00:23:18;31.07;28.97;36.28;;
69620;Laerm;57654;51.434;5.984;2022-07-01T00:23:29;30.86;28.49;35.07;;
69620;Laerm;57654;51.434;5.984;2022-07-01T00:23:40;31.11;28.81;35.29;;
69620;Laerm;57654;51.434;5.984;2022-07-01T00:23:50;30.86;28.66;35.06;;
69620;Laerm;57654;51.434;5.984;2022-07-01T00:24:00;31.17;28.88;35.74;;
69620;Laerm;57654;51.434;5.984;2022-07-01T00:24:10;30.97;28.87;34.76;;
69620;Laerm;57654;51.434;5.984;2022-07-01T00:24:21;31.16;28.99;34.69;;
69620;Laerm;57654;51.434;5.984;2022-07-01T00:24:31;31.40;29.15;39.22;;
69620;Laerm;57654;51.434;5.984;2022-07-01T00:24:41;30.92;28.58;35.48;;
69620;Laerm;57654;51.434;5.984;2022-07-01T00:24:51;31.05;29.05;38.08;;
69620;Laerm;57654;51.434;5.984;2022-07-01T00:25:02;30.99;28.79;35.06;;
69620;Laerm;57654;51.434;5.984;2022-07-01T00:25:13;31.34;28.51;44.74;;
69620;Laerm;57654;51.434;5.984;2022-07-01T00:25:23;30.95;28.96;35.18;;
69620;Laerm;57654;51.434;5.984;2022-07-01T00:25:33;31.09;28.90;36.93;;
69620;Laerm;57654;51.434;5.984;2022-07-01T00:25:44;30.92;28.92;34.55;;
69620;Laerm;57654;51.434;5.984;2022-07-01T00:25:54;31.12;28.83;37.53;;
69620;Laerm;57654;51.434;5.984;2022-07-01T00:26:04;31.22;28.80;37.03;;
69620;Laerm;57654;51.434;5.984;2022-07-01T00:26:15;31.12;29.05;36.88;;
69620;Laerm;57654;51.434;5.984;2022-07-01T00:26:25;30.90;28.99;37.27;;
69620;Laerm;57654;51.434;5.984;2022-07-01T00:26:35;31.17;29.30;35.48;;
69620;Laerm;57654;51.434;5.984;2022-07-01T00:26:46;31.06;29.11;37.38;;
69620;Laerm;57654;51.434;5.984;2022-07-01T00:26:56;30.91;28.79;36.71;;
69620;Laerm;57654;51.434;5.984;2022-07-01T00:27:06;31.38;29.07;35.69;;
69620;Laerm;57654;51.434;5.984;2022-07-01T00:27:16;31.17;29.15;35.73;;
69620;Laerm;57654;51.434;5.984;2022-07-01T00:27:27;31.20;28.96;37.57;;
69620;Laerm;57654;51.434;5.984;2022-07-01T00:27:40;31.22;28.74;38.51;;
69620;Laerm;57654;51.434;5.984;2022-07-01T00:27:50;30.99;28.81;34.81;;
69620;Laerm;57654;51.434;5.984;2022-07-01T00:28:01;31.12;29.21;34.39;;
69620;Laerm;57654;51.434;5.984;2022-07-01T00:28:11;31.20;28.98;35.35;;
69620;Laerm;57654;51.434;5.984;2022-07-01T00:28:21;31.31;28.77;38.10;;
69620;Laerm;57654;51.434;5.984;2022-07-01T00:28:31;31.23;28.40;35.68;;
69620;Laerm;57654;51.434;5.984;2022-07-01T00:28:42;31.00;28.81;36.07;;
69620;Laerm;57654;51.434;5.984;2022-07-01T00:28:52;31.02;28.82;35.64;;
69620;Laerm;57654;51.434;5.984;2022-07-01T00:29:02;31.41;29.23;37.88;;
69620;Laerm;57654;51.434;5.984;2022-07-01T00:29:12;31.18;29.06;34.82;;
69620;Laerm;57654;51.434;5.984;2022-07-01T00:29:23;31.04;28.42;35.20;;
69620;Laerm;57654;51.434;5.984;2022-07-01T00:29:33;30.98;29.16;36.75;;
69620;Laerm;57654;51.434;5.984;2022-07-01T00:29:43;31.10;28.95;35.74;;
69620;Laerm;57654;51.434;5.984;2022-07-01T00:29:54;31.38;29.13;36.20;;
69620;Laerm;57654;51.434;5.984;2022-07-01T00:30:04;31.28;29.15;37.03;;
69620;Laerm;57654;51.434;5.984;2022-07-01T00:30:15;30.87;29.04;34.14;;
69620;Laerm;57654;51.434;5.984;2022-07-01T00:30:25;31.06;29.05;35.99;;
69620;Laerm;57654;51.434;5.984;2022-07-01T00:30:35;31.36;28.93;39.02;;
69620;Laerm;57654;51.434;5.984;2022-07-01T00:30:46;31.13;28.89;36.61;;
69620;Laerm;57654;51.434;5.984;2022-07-01T00:30:56;31.25;29.05;36.62;;
69620;Laerm;57654;51.434;5.984;2022-07-01T00:31:06;31.34;29.15;36.91;;
69620;Laerm;57654;51.434;5.984;2022-07-01T00:31:17;32.24;28.95;40.37;;
69620;Laerm;57654;51.434;5.984;2022-07-01T00:31:27;31.31;29.14;35.29;;
69620;Laerm;57654;51.434;5.984;2022-07-01T00:31:37;31.23;28.91;36.21;;
69620;Laerm;57654;51.434;5.984;2022-07-01T00:31:48;30.98;28.94;35.66;;
69620;Laerm;57654;51.434;5.984;2022-07-01T00:31:58;30.98;28.57;36.01;;
69620;Laerm;57654;51.434;5.984;2022-07-01T00:32:08;31.13;29.04;35.40;;
69620;Laerm;57654;51.434;5.984;2022-07-01T00:32:19;31.31;29.15;37.78;;
69620;Laerm;57654;51.434;5.984;2022-07-01T00:32:29;31.17;29.26;35.86;;
69620;Laerm;57654;51.434;5.984;2022-07-01T00:32:39;31.15;29.15;35.93;;
69620;Laerm;57654;51.434;5.984;2022-07-01T00:32:50;31.20;28.86;36.64;;
69620;Laerm;57654;51.434;5.984;2022-07-01T00:33:03;31.53;29.09;37.45;;
69620;Laerm;57654;51.434;5.984;2022-07-01T00:33:13;31.18;29.18;35.02;;
69620;Laerm;57654;51.434;5.984;2022-07-01T00:33:23;31.11;29.25;35.94;;
69620;Laerm;57654;51.434;5.984;2022-07-01T00:33:33;31.11;29.13;34.68;;
69620;Laerm;57654;51.434;5.984;2022-07-01T00:33:44;31.24;28.71;35.56;;
69620;Laerm;57654;51.434;5.984;2022-07-01T00:33:54;31.23;29.07;35.94;;
69620;Laerm;57654;51.434;5.984;2022-07-01T00:34:04;31.01;29.13;34.54;;
69620;Laerm;57654;51.434;5.984;2022-07-01T00:34:14;31.14;29.09;34.21;;
69620;Laerm;57654;51.434;5.984;2022-07-01T00:34:25;31.11;29.15;35.34;;
69620;Laerm;57654;51.434;5.984;2022-07-01T00:34:35;31.05;29.06;34.44;;
69620;Laerm;57654;51.434;5.984;2022-07-01T00:34:45;31.37;29.20;37.23;;
69620;Laerm;57654;51.434;5.984;2022-07-01T00:34:56;31.78;29.55;34.70;;
69620;Laerm;57654;51.434;5.984;2022-07-01T00:35:06;31.19;28.88;34.32;;
69620;Laerm;57654;51.434;5.984;2022-07-01T00:35:16;31.26;29.13;36.74;;
69620;Laerm;57654;51.434;5.984;2022-07-01T00:35:27;31.09;29.17;35.32;;
69620;Laerm;57654;51.434;5.984;2022-07-01T00:35:37;31.40;29.12;36.79;;
69620;Laerm;57654;51.434;5.984;2022-07-01T00:35:47;31.60;28.73;37.87;;
69620;Laerm;57654;51.434;5.984;2022-07-01T00:35:58;31.16;29.06;35.56;;
69620;Laerm;57654;51.434;5.984;2022-07-01T00:36:08;31.18;28.86;35.15;;
69620;Laerm;57654;51.434;5.984;2022-07-01T00:36:19;31.21;29.09;34.72;;
69620;Laerm;57654;51.434;5.984;2022-07-01T00:36:29;31.05;29.16;35.15;;
69620;Laerm;57654;51.434;5.984;2022-07-01T00:36:39;31.34;29.13;37.49;;
69620;Laerm;57654;51.434;5.984;2022-07-01T00:36:50;31.36;29.00;37.93;;
69620;Laerm;57654;51.434;5.984;2022-07-01T00:37:00;31.28;28.80;35.18;;
69620;Laerm;57654;51.434;5.984;2022-07-01T00:37:11;31.44;29.28;34.68;;
69620;Laerm;57654;51.434;5.984;2022-07-01T00:37:21;31.36;29.29;37.07;;
69620;Laerm;57654;51.434;5.984;2022-07-01T00:37:31;31.46;29.20;35.46;;
69620;Laerm;57654;51.434;5.984;2022-07-01T00:37:41;31.74;29.38;38.67;;
69620;Laerm;57654;51.434;5.984;2022-07-01T00:37:51;31.05;28.95;35.64;;
69620;Laerm;57654;51.434;5.984;2022-07-01T00:38:02;31.46;29.35;39.32;;
69620;Laerm;57654;51.434;5.984;2022-07-01T00:38:12;31.30;29.21;36.96;;
69620;Laerm;57654;51.434;5.984;2022-07-01T00:38:23;31.17;28.80;37.56;;
69620;Laerm;57654;51.434;5.984;2022-07-01T00:38:33;32.69;29.63;37.18;;
69620;Laerm;57654;51.434;5.984;2022-07-01T00:38:43;31.70;29.24;36.49;;
69620;Laerm;57654;51.434;5.984;2022-07-01T00:38:54;31.37;29.30;37.60;;
69620;Laerm;57654;51.434;5.984;2022-07-01T00:39:04;31.25;28.76;35.99;;
69620;Laerm;57654;51.434;5.984;2022-07-01T00:39:14;31.22;29.11;35.92;;
69620;Laerm;57654;51.434;5.984;2022-07-01T00:39:25;31.41;29.09;36.68;;
69620;Laerm;57654;51.434;5.984;2022-07-01T00:39:35;31.36;28.84;36.56;;
69620;Laerm;57654;51.434;5.984;2022-07-01T00:39:46;31.09;28.87;37.67;;
69620;Laerm;57654;51.434;5.984;2022-07-01T00:39:56;31.35;29.15;40.69;;
69620;Laerm;57654;51.434;5.984;2022-07-01T00:40:07;31.04;29.19;34.61;;
69620;Laerm;57654;51.434;5.984;2022-07-01T00:40:18;31.53;29.30;37.98;;
69620;Laerm;57654;51.434;5.984;2022-07-01T00:40:28;31.48;29.34;37.57;;
69620;Laerm;57654;51.434;5.984;2022-07-01T00:40:38;31.33;28.92;36.39;;
69620;Laerm;57654;51.434;5.984;2022-07-01T00:40:54;31.49;29.28;38.58;;
69620;Laerm;57654;51.434;5.984;2022-07-01T00:41:05;31.29;29.12;38.38;;
69620;Laerm;57654;51.434;5.984;2022-07-01T00:41:15;31.25;29.12;35.32;;
69620;Laerm;57654;51.434;5.984;2022-07-01T00:41:26;31.47;28.92;37.49;;
69620;Laerm;57654;51.434;5.984;2022-07-01T00:41:37;31.13;29.24;36.27;;
69620;Laerm;57654;51.434;5.984;2022-07-01T00:41:47;30.98;29.12;36.07;;
69620;Laerm;57654;51.434;5.984;2022-07-01T00:41:58;30.88;28.72;34.95;;
69620;Laerm;57654;51.434;5.984;2022-07-01T00:42:10;31.29;28.88;36.32;;
69620;Laerm;57654;51.434;5.984;2022-07-01T00:42:20;32.19;29.44;38.18;;
69620;Laerm;57654;51.434;5.984;2022-07-01T00:42:31;31.76;29.28;39.23;;
69620;Laerm;57654;51.434;5.984;2022-07-01T00:42:41;31.48;29.24;35.87;;
69620;Laerm;57654;51.434;5.984;2022-07-01T00:42:52;31.31;29.20;37.66;;
69620;Laerm;57654;51.434;5.984;2022-07-01T00:43:02;31.12;29.17;35.15;;
69620;Laerm;57654;51.434;5.984;2022-07-01T00:43:13;31.12;29.00;36.90;;
69620;Laerm;57654;51.434;5.984;2022-07-01T00:43:23;31.21;29.21;36.97;;
69620;Laerm;57654;51.434;5.984;2022-07-01T00:43:37;31.66;29.37;37.13;;
69620;Laerm;57654;51.434;5.984;2022-07-01T00:43:48;31.69;29.28;38.36;;
69620;Laerm;57654;51.434;5.984;2022-07-01T00:43:59;31.58;29.42;35.44;;
69620;Laerm;57654;51.434;5.984;2022-07-01T00:44:16;31.01;28.95;35.83;;
69620;Laerm;57654;51.434;5.984;2022-07-01T00:44:26;31.07;29.08;36.76;;
69620;Laerm;57654;51.434;5.984;2022-07-01T00:44:36;31.19;29.29;38.12;;
69620;Laerm;57654;51.434;5.984;2022-07-01T00:44:47;31.18;29.20;35.53;;
69620;Laerm;57654;51.434;5.984;2022-07-01T00:44:57;31.13;29.21;34.92;;
69620;Laerm;57654;51.434;5.984;2022-07-01T00:45:08;31.08;29.11;34.52;;
69620;Laerm;57654;51.434;5.984;2022-07-01T00:45:19;31.39;29.36;37.69;;
69620;Laerm;57654;51.434;5.984;2022-07-01T00:45:30;31.03;28.59;35.52;;
69620;Laerm;57654;51.434;5.984;2022-07-01T00:45:44;31.31;28.78;39.68;;
69620;Laerm;57654;51.434;5.984;2022-07-01T00:45:55;31.49;28.91;36.68;;
69620;Laerm;57654;51.434;5.984;2022-07-01T00:46:05;31.12;29.33;36.16;;
69620;Laerm;57654;51.434;5.984;2022-07-01T00:46:16;31.33;29.00;37.07;;
69620;Laerm;57654;51.434;5.984;2022-07-01T00:46:26;31.25;28.93;34.65;;
69620;Laerm;57654;51.434;5.984;2022-07-01T00:46:37;31.45;29.28;37.46;;
69620;Laerm;57654;51.434;5.984;2022-07-01T00:46:48;31.35;28.54;42.67;;
69620;Laerm;57654;51.434;5.984;2022-07-01T00:47:01;31.57;29.31;37.42;;
69620;Laerm;57654;51.434;5.984;2022-07-01T00:47:13;31.42;29.28;35.96;;
69620;Laerm;57654;51.434;5.984;2022-07-01T00:47:23;31.44;29.33;36.56;;
69620;Laerm;57654;51.434;5.984;2022-07-01T00:47:34;31.23;28.83;36.04;;
69620;Laerm;57654;51.434;5.984;2022-07-01T00:47:45;31.22;29.34;34.67;;
69620;Laerm;57654;51.434;5.984;2022-07-01T00:47:56;31.43;29.24;38.43;;
69620;Laerm;57654;51.434;5.984;2022-07-01T00:48:06;31.50;28.98;39.22;;
69620;Laerm;57654;51.434;5.984;2022-07-01T00:48:17;31.25;29.13;35.77;;
69620;Laerm;57654;51.434;5.984;2022-07-01T00:48:28;31.15;29.26;34.73;;
69620;Laerm;57654;51.434;5.984;2022-07-01T00:48:39;31.45;28.83;35.88;;
69620;Laerm;57654;51.434;5.984;2022-07-01T00:48:50;31.15;28.79;36.98;;
69620;Laerm;57654;51.434;5.984;2022-07-01T00:49:01;31.43;28.95;35.70;;
69620;Laerm;57654;51.434;5.984;2022-07-01T00:49:11;31.09;29.28;34.93;;
69620;Laerm;57654;51.434;5.984;2022-07-01T00:49:21;31.22;28.77;38.99;;
69620;Laerm;57654;51.434;5.984;2022-07-01T00:49:32;31.46;29.17;35.31;;
69620;Laerm;57654;51.434;5.984;2022-07-01T00:49:42;31.93;29.14;44.61;;
69620;Laerm;57654;51.434;5.984;2022-07-01T00:49:53;31.73;29.80;39.70;;
69620;Laerm;57654;51.434;5.984;2022-07-01T00:50:06;31.19;29.16;35.81;;
69620;Laerm;57654;51.434;5.984;2022-07-01T00:50:17;32.13;29.32;37.13;;
69620;Laerm;57654;51.434;5.984;2022-07-01T00:50:28;43.91;33.17;47.93;;
69620;Laerm;57654;51.434;5.984;2022-07-01T00:50:38;47.05;45.33;48.93;;
69620;Laerm;57654;51.434;5.984;2022-07-01T00:50:48;46.14;42.23;48.78;;
69620;Laerm;57654;51.434;5.984;2022-07-01T00:50:59;39.03;33.47;44.44;;
69620;Laerm;57654;51.434;5.984;2022-07-01T00:51:09;33.32;31.25;40.18;;
69620;Laerm;57654;51.434;5.984;2022-07-01T00:51:20;32.06;29.61;38.42;;
69620;Laerm;57654;51.434;5.984;2022-07-01T00:51:30;31.39;29.14;35.70;;
69620;Laerm;57654;51.434;5.984;2022-07-01T00:51:41;32.19;29.53;37.68;;
69620;Laerm;57654;51.434;5.984;2022-07-01T00:51:52;32.05;29.28;35.72;;
69620;Laerm;57654;51.434;5.984;2022-07-01T00:52:02;31.56;29.20;37.20;;
69620;Laerm;57654;51.434;5.984;2022-07-01T00:52:12;31.15;29.11;36.50;;
69620;Laerm;57654;51.434;5.984;2022-07-01T00:52:23;31.26;29.24;34.98;;
69620;Laerm;57654;51.434;5.984;2022-07-01T00:52:33;30.93;28.99;35.46;;
69620;Laerm;57654;51.434;5.984;2022-07-01T00:52:44;31.31;28.96;40.67;;
69620;Laerm;57654;51.434;5.984;2022-07-01T00:52:55;31.27;29.04;35.88;;
69620;Laerm;57654;51.434;5.984;2022-07-01T00:53:05;31.24;28.88;39.72;;
69620;Laerm;57654;51.434;5.984;2022-07-01T00:53:15;31.09;29.13;35.48;;
69620;Laerm;57654;51.434;5.984;2022-07-01T00:53:26;31.20;29.29;35.56;;
69620;Laerm;57654;51.434;5.984;2022-07-01T00:53:37;31.31;29.19;36.35;;
69620;Laerm;57654;51.434;5.984;2022-07-01T00:53:47;31.05;28.97;35.70;;
69620;Laerm;57654;51.434;5.984;2022-07-01T00:53:58;31.00;29.20;34.93;;
69620;Laerm;57654;51.434;5.984;2022-07-01T00:54:08;31.20;29.29;36.25;;
69620;Laerm;57654;51.434;5.984;2022-07-01T00:54:19;31.24;29.01;35.11;;
69620;Laerm;57654;51.434;5.984;2022-07-01T00:54:30;31.41;29.16;38.05;;
69620;Laerm;57654;51.434;5.984;2022-07-01T00:54:40;31.62;29.39;37.29;;
69620;Laerm;57654;51.434;5.984;2022-07-01T00:54:52;31.56;29.30;36.75;;
69620;Laerm;57654;51.434;5.984;2022-07-01T00:55:04;31.62;29.69;36.52;;
69620;Laerm;57654;51.434;5.984;2022-07-01T00:55:15;32.83;29.97;36.55;;
69620;Laerm;57654;51.434;5.984;2022-07-01T00:55:25;32.21;30.32;38.14;;
69620;Laerm;57654;51.434;5.984;2022-07-01T00:55:36;31.54;29.29;35.42;;
69620;Laerm;57654;51.434;5.984;2022-07-01T00:55:46;31.20;29.01;35.65;;
69620;Laerm;57654;51.434;5.984;2022-07-01T00:55:56;31.25;29.13;39.55;;
69620;Laerm;57654;51.434;5.984;2022-07-01T00:56:07;31.67;29.18;36.62;;
69620;Laerm;57654;51.434;5.984;2022-07-01T00:56:17;31.52;29.15;39.77;;
69620;Laerm;57654;51.434;5.984;2022-07-01T00:56:28;31.42;29.27;34.86;;
69620;Laerm;57654;51.434;5.984;2022-07-01T00:56:38;31.16;29.19;36.07;;
69620;Laerm;57654;51.434;5.984;2022-07-01T00:56:48;31.05;29.13;35.97;;
69620;Laerm;57654;51.434;5.984;2022-07-01T00:56:59;31.29;29.31;34.43;;
69620;Laerm;57654;51.434;5.984;2022-07-01T00:57:10;31.42;29.25;35.78;;
69620;Laerm;57654;51.434;5.984;2022-07-01T00:57:20;31.31;28.82;35.86;;
69620;Laerm;57654;51.434;5.984;2022-07-01T00:57:31;31.19;28.93;38.09;;
69620;Laerm;57654;51.434;5.984;2022-07-01T00:57:42;31.04;29.16;36.25;;
69620;Laerm;57654;51.434;5.984;2022-07-01T00:57:53;31.07;28.89;35.55;;
69620;Laerm;57654;51.434;5.984;2022-07-01T00:58:03;31.42;28.78;39.97;;
69620;Laerm;57654;51.434;5.984;2022-07-01T00:58:13;30.95;28.88;36.11;;
69620;Laerm;57654;51.434;5.984;2022-07-01T00:58:27;32.47;29.40;36.44;;
69620;Laerm;57654;51.434;5.984;2022-07-01T00:58:40;31.18;29.22;36.19;;
69620;Laerm;57654;51.434;5.984;2022-07-01T00:58:50;31.17;28.97;35.08;;
69620;Laerm;57654;51.434;5.984;2022-07-01T00:59:01;31.24;28.76;35.52;;
69620;Laerm;57654;51.434;5.984;2022-07-01T00:59:11;31.26;29.28;35.71;;